createdAt,value
2018-03-27T00:00:35.769Z,76.12
2018-03-27T00:03:06.627Z,76.79
2018-03-27T00:05:37.672Z,76.09
2018-03-27T00:08:08.661Z,76.17
2018-03-27T00:10:39.346Z,75.92
2018-03-27T00:13:10.050Z,76.95
2018-03-27T00:15:40.851Z,76.36
2018-03-27T00:18:11.646Z,76.71
2018-03-27T00:20:42.691Z,76.53
2018-03-27T00:23:13.732Z,76.59
2018-03-27T00:25:44.783Z,76.38
2018-03-27T00:28:26.546Z,77.81
2018-03-27T00:31:07.136Z,77.59
2018-03-27T00:33:46.891Z,78.11
2018-03-27T00:36:26.715Z,78.64
2018-03-27T00:39:06.435Z,78.50
2018-03-27T00:44:49.776Z,78.08
2018-03-27T00:47:18.829Z,78.01
2018-03-27T00:49:47.775Z,78.09
2018-03-27T00:52:16.722Z,78.26
2018-03-27T00:54:45.725Z,78.24
2018-03-27T00:57:14.683Z,77.63
2018-03-27T00:59:43.711Z,77.65
2018-03-27T01:02:12.824Z,77.36
2018-03-27T01:04:41.780Z,77.37
2018-03-27T01:07:10.731Z,77.14
2018-03-27T01:09:39.724Z,77.42
2018-03-27T01:12:08.701Z,78.28
2018-03-27T01:14:37.696Z,77.85
2018-03-27T01:17:06.707Z,77.71
2018-03-27T01:19:35.723Z,77.72
2018-03-27T01:22:04.104Z,77.69
2018-03-27T01:24:33.438Z,77.52
2018-03-27T01:27:02.684Z,78.00
2018-03-27T01:29:31.625Z,77.84
2018-03-27T01:32:00.948Z,77.67
2018-03-27T01:34:29.894Z,78.24
2018-03-27T01:36:58.882Z,78.05
2018-03-27T01:39:27.928Z,78.05
2018-03-27T01:41:56.864Z,77.78
2018-03-27T01:44:25.813Z,77.80
2018-03-27T01:46:54.814Z,78.23
2018-03-27T01:49:23.764Z,78.11
2018-03-27T01:51:52.732Z,78.68
2018-03-27T01:54:22.083Z,78.20
2018-03-27T01:56:51.055Z,77.84
2018-03-27T01:59:20.015Z,78.02
2018-03-27T02:01:49.281Z,78.16
2018-03-27T02:04:18.562Z,77.88
2018-03-27T02:06:47.527Z,77.41
2018-03-27T02:09:16.636Z,77.54
2018-03-27T02:11:50.801Z,77.12
2018-03-27T02:14:25.192Z,76.63
2018-03-27T02:16:59.662Z,77.26
2018-03-27T02:19:34.088Z,76.88
2018-03-27T02:22:02.222Z,76.85
2018-03-27T02:24:35.390Z,76.69
2018-03-27T02:27:04.561Z,76.90
2018-03-27T02:29:33.611Z,76.64
2018-03-27T02:32:02.637Z,76.62
2018-03-27T02:34:31.586Z,76.66
2018-03-27T02:37:00.611Z,76.51
2018-03-27T02:39:29.695Z,76.61
2018-03-27T02:41:58.653Z,76.28
2018-03-27T02:44:27.623Z,76.58
2018-03-27T02:46:56.880Z,76.59
2018-03-27T02:49:25.851Z,76.52
2018-03-27T02:51:54.807Z,77.14
2018-03-27T02:54:24.364Z,77.33
2018-03-27T02:56:53.559Z,77.30
2018-03-27T02:59:22.906Z,77.96
2018-03-27T03:01:52.152Z,78.14
2018-03-27T03:04:21.447Z,78.12
2018-03-27T03:06:50.784Z,77.58
2018-03-27T03:09:20.093Z,77.59
2018-03-27T03:11:49.352Z,77.34
2018-03-27T03:14:18.467Z,78.29
2018-03-27T03:16:47.752Z,78.23
2018-03-27T03:19:18.426Z,78.67
2018-03-27T03:21:49.220Z,78.32
2018-03-27T03:24:19.781Z,78.16
2018-03-27T03:26:50.476Z,78.52
2018-03-27T03:29:21.127Z,78.13
2018-03-27T03:31:51.810Z,78.25
2018-03-27T03:34:22.300Z,77.74
2018-03-27T03:36:53.081Z,77.53
2018-03-27T03:39:23.694Z,78.14
2018-03-27T03:41:54.723Z,78.03
2018-03-27T03:44:25.705Z,78.05
2018-03-27T03:46:56.824Z,77.60
2018-03-27T03:49:27.736Z,77.60
2018-03-27T03:51:58.477Z,77.47
2018-03-27T03:54:29.081Z,77.04
2018-03-27T03:56:59.825Z,76.61
2018-03-27T03:59:30.765Z,76.28
2018-03-27T04:02:01.868Z,76.29
2018-03-27T04:04:32.942Z,76.77
2018-03-27T04:07:03.796Z,77.00
2018-03-27T04:09:34.712Z,76.72
2018-03-27T04:12:05.732Z,76.81
2018-03-27T04:14:36.343Z,77.62
2018-03-27T04:17:07.120Z,77.51
2018-03-27T04:19:37.099Z,76.99
2018-03-27T04:22:07.723Z,76.56
2018-03-27T04:24:38.715Z,76.39
2018-03-27T04:27:09.824Z,76.19
2018-03-27T04:29:40.358Z,75.98
2018-03-27T04:32:11.078Z,75.79
2018-03-27T04:34:41.723Z,75.65
2018-03-27T04:37:12.796Z,75.62
2018-03-27T04:39:43.699Z,75.58
2018-03-27T04:42:14.758Z,75.55
2018-03-27T04:44:45.756Z,75.36
2018-03-27T04:47:16.624Z,75.35
2018-03-27T04:49:47.617Z,75.27
2018-03-27T04:52:21.007Z,75.28
2018-03-27T04:54:50.363Z,75.23
2018-03-27T04:57:21.158Z,75.91
2018-03-27T04:59:51.827Z,76.25
2018-03-27T05:02:22.850Z,76.65
2018-03-27T05:04:53.695Z,76.34
2018-03-27T05:07:24.777Z,76.43
2018-03-27T05:09:55.661Z,76.21
2018-03-27T05:12:26.739Z,75.95
2018-03-27T05:14:57.671Z,75.81
2018-03-27T05:17:29.052Z,75.75
2018-03-27T05:20:00.286Z,75.58
2018-03-27T05:22:30.074Z,75.52
2018-03-27T05:25:00.800Z,75.60
2018-03-27T05:27:31.752Z,75.57
2018-03-27T05:30:02.648Z,75.69
2018-03-27T05:32:33.343Z,75.76
2018-03-27T05:35:04.046Z,76.06
2018-03-27T05:37:34.857Z,76.49
2018-03-27T05:40:05.670Z,77.12
2018-03-27T05:42:36.728Z,77.55
2018-03-27T05:45:07.753Z,77.69
2018-03-27T05:47:38.706Z,77.42
2018-03-27T05:50:09.691Z,77.93
2018-03-27T05:52:40.753Z,78.29
2018-03-27T05:55:12.050Z,78.62
2018-03-27T05:57:43.661Z,78.48
2018-03-27T06:00:14.492Z,78.10
2018-03-27T06:02:45.436Z,77.98
2018-03-27T06:05:16.118Z,78.43
2018-03-27T06:07:46.841Z,77.88
2018-03-27T06:10:18.082Z,78.18
2018-03-27T06:12:48.758Z,86.65
2018-03-27T06:15:19.667Z,73.45
2018-03-27T06:17:50.745Z,74.99
2018-03-27T06:20:21.685Z,75.50
2018-03-27T06:22:52.859Z,76.06
2018-03-27T06:25:23.745Z,77.32
2018-03-27T06:27:54.816Z,77.53
2018-03-27T06:30:25.620Z,77.08
2018-03-27T06:32:56.370Z,77.15
2018-03-27T06:35:27.052Z,77.17
2018-03-27T06:37:57.881Z,77.24
2018-03-27T06:40:28.695Z,77.03
2018-03-27T06:42:59.754Z,77.10
2018-03-27T06:45:30.687Z,77.09
2018-03-27T06:48:01.733Z,76.57
2018-03-27T06:50:32.731Z,76.33
2018-03-27T06:53:03.435Z,76.32
2018-03-27T06:55:38.548Z,76.34
2018-03-27T06:58:08.884Z,76.27
2018-03-27T07:00:38.156Z,76.36
2018-03-27T07:03:07.489Z,76.95
2018-03-27T07:05:38.336Z,76.67
2018-03-27T07:08:09.122Z,76.80
2018-03-27T07:10:40.367Z,77.16
2018-03-27T07:13:11.701Z,76.78
2018-03-27T07:15:42.467Z,77.52
2018-03-27T07:18:13.150Z,77.50
2018-03-27T07:20:43.893Z,76.92
2018-03-27T07:23:14.683Z,77.00
2018-03-27T07:25:45.741Z,76.51
2018-03-27T07:28:16.685Z,76.14
2018-03-27T07:30:47.738Z,76.25
2018-03-27T07:33:18.451Z,76.23
2018-03-27T07:35:49.391Z,76.11
2018-03-27T07:38:20.074Z,76.49
2018-03-27T07:40:50.870Z,76.65
2018-03-27T07:43:21.730Z,76.52
2018-03-27T07:45:52.710Z,76.34
2018-03-27T07:48:23.698Z,76.44
2018-03-27T07:50:53.814Z,76.26
2018-03-27T07:53:24.767Z,75.59
2018-03-27T07:55:55.764Z,75.39
2018-03-27T07:58:26.727Z,75.02
2018-03-27T08:00:57.401Z,74.85
2018-03-27T08:03:28.296Z,74.63
2018-03-27T08:05:59.022Z,74.92
2018-03-27T08:08:29.698Z,75.06
2018-03-27T08:11:00.821Z,74.86
2018-03-27T08:13:31.722Z,74.72
2018-03-27T08:16:02.770Z,74.41
2018-03-27T08:18:33.666Z,74.45
2018-03-27T08:21:04.849Z,74.17
2018-03-27T08:23:36.419Z,74.18
2018-03-27T08:26:07.153Z,74.61
2018-03-27T08:28:37.725Z,74.35
2018-03-27T08:31:08.792Z,73.94
2018-03-27T08:33:39.743Z,73.18
2018-03-27T08:36:10.723Z,73.19
2018-03-27T08:38:41.745Z,72.90
2018-03-27T08:41:12.819Z,72.85
2018-03-27T08:43:43.656Z,72.83
2018-03-27T08:46:14.621Z,73.08
2018-03-27T08:48:45.643Z,72.92
2018-03-27T08:51:16.780Z,73.05
2018-03-27T08:53:47.987Z,73.06
2018-03-27T08:56:18.767Z,72.27
2018-03-27T08:58:49.758Z,72.47
2018-03-27T09:01:20.732Z,71.95
2018-03-27T09:03:51.793Z,71.97
2018-03-27T09:06:22.790Z,71.67
2018-03-27T09:08:53.697Z,71.84
2018-03-27T09:11:24.817Z,72.04
2018-03-27T09:13:55.699Z,71.74
2018-03-27T09:16:26.813Z,71.81
2018-03-27T09:18:57.680Z,71.77
2018-03-27T09:21:28.731Z,71.38
2018-03-27T09:23:59.668Z,69.77
2018-03-27T09:26:30.731Z,70.46
2018-03-27T09:29:06.803Z,70.59
2018-03-27T09:31:36.131Z,70.93
2018-03-27T09:34:05.400Z,70.78
2018-03-27T09:36:35.105Z,70.23
2018-03-27T09:39:05.387Z,68.66
2018-03-27T09:41:36.693Z,68.34
2018-03-27T09:44:07.751Z,67.38
2018-03-27T09:46:38.769Z,68.04
2018-03-27T09:49:09.745Z,68.10
2018-03-27T09:51:40.640Z,66.46
2018-03-27T09:54:11.693Z,66.72
2018-03-27T09:56:42.695Z,66.49
2018-03-27T09:59:13.606Z,66.91
2018-03-27T10:01:44.197Z,66.58
2018-03-27T10:04:14.938Z,66.80
2018-03-27T10:06:45.657Z,65.11
2018-03-27T10:09:16.750Z,65.31
2018-03-27T10:11:47.657Z,65.19
2018-03-27T10:14:18.338Z,65.66
2018-03-27T10:16:49.010Z,64.76
2018-03-27T10:19:19.766Z,65.29
2018-03-27T10:21:50.651Z,65.76
2018-03-27T10:24:21.704Z,65.82
2018-03-27T10:26:52.726Z,65.25
2018-03-27T10:29:23.764Z,65.06
2018-03-27T10:31:54.434Z,64.94
2018-03-27T10:34:25.139Z,64.06
2018-03-27T10:36:55.824Z,64.51
2018-03-27T10:39:26.722Z,64.92
2018-03-27T10:41:57.682Z,63.85
2018-03-27T10:44:28.749Z,63.65
2018-03-27T10:46:59.614Z,63.74
2018-03-27T10:49:30.644Z,63.72
2018-03-27T10:52:01.654Z,63.92
2018-03-27T10:54:32.715Z,63.14
2018-03-27T10:57:03.839Z,60.40
2018-03-27T10:59:34.767Z,59.74
2018-03-27T11:02:05.669Z,59.51
2018-03-27T11:04:37.308Z,58.06
2018-03-27T11:07:08.020Z,58.75
2018-03-27T11:09:38.850Z,57.45
2018-03-27T11:12:09.338Z,58.42
2018-03-27T11:14:40.059Z,57.35
2018-03-27T11:17:10.765Z,56.73
2018-03-27T11:19:41.663Z,57.42
2018-03-27T11:22:12.628Z,57.93
2018-03-27T11:24:43.954Z,58.50
2018-03-27T11:27:14.708Z,58.61
2018-03-27T11:29:45.820Z,60.03
2018-03-27T11:32:18.327Z,60.68
2018-03-27T11:34:48.082Z,60.55
2018-03-27T11:37:18.071Z,60.17
2018-03-27T11:39:48.822Z,59.78
2018-03-27T11:42:19.322Z,59.45
2018-03-27T11:44:49.856Z,59.90
2018-03-27T11:47:20.687Z,59.90
2018-03-27T11:49:51.775Z,58.60
2018-03-27T11:52:22.631Z,58.25
2018-03-27T11:54:53.578Z,58.39
2018-03-27T11:57:24.590Z,58.56
2018-03-27T11:59:55.658Z,58.15
2018-03-27T12:02:26.311Z,57.86
2018-03-27T12:04:57.139Z,56.08
2018-03-27T12:07:27.806Z,56.68
2018-03-27T12:09:58.887Z,57.10
2018-03-27T12:12:29.676Z,56.21
2018-03-27T12:15:00.727Z,56.05
2018-03-27T12:17:31.627Z,54.13
2018-03-27T12:20:02.720Z,54.51
2018-03-27T12:22:33.706Z,55.74
2018-03-27T12:25:04.803Z,56.00
2018-03-27T12:27:35.711Z,54.64
2018-03-27T12:30:06.840Z,54.68
2018-03-27T12:32:37.712Z,55.03
2018-03-27T12:35:08.801Z,52.27
2018-03-27T12:37:39.714Z,52.24
2018-03-27T12:40:10.766Z,51.78
2018-03-27T12:42:41.658Z,51.85
2018-03-27T12:45:12.306Z,51.72
2018-03-27T12:47:43.012Z,50.80
2018-03-27T12:50:13.784Z,51.03
2018-03-27T12:52:44.852Z,51.65
2018-03-27T12:55:15.768Z,52.58
2018-03-27T12:57:46.753Z,53.17
2018-03-27T13:00:17.726Z,53.52
2018-03-27T13:02:48.749Z,53.27
2018-03-27T13:05:19.794Z,53.12
2018-03-27T13:07:57.816Z,50.56
2018-03-27T13:10:27.219Z,50.76
2018-03-27T13:12:56.457Z,51.37
2018-03-27T13:15:25.873Z,52.19
2018-03-27T13:17:55.334Z,52.63
2018-03-27T13:20:26.020Z,53.19
2018-03-27T13:22:56.459Z,53.26
2018-03-27T13:25:26.973Z,53.52
2018-03-27T13:27:57.803Z,52.54
2018-03-27T13:30:28.777Z,53.34
2018-03-27T13:32:59.706Z,53.08
2018-03-27T13:35:32.263Z,52.59
2018-03-27T13:38:02.191Z,52.09
2018-03-27T13:40:32.715Z,51.31
2018-03-27T13:43:03.778Z,52.49
2018-03-27T13:45:34.725Z,52.32
2018-03-27T13:48:05.119Z,52.11
2018-03-27T13:50:36.702Z,50.38
2018-03-27T13:53:07.786Z,50.98
2018-03-27T13:55:38.692Z,50.91
2018-03-27T13:58:09.394Z,50.68
2018-03-27T14:00:40.024Z,51.16
2018-03-27T14:03:10.826Z,51.25
2018-03-27T14:05:41.927Z,52.05
2018-03-27T14:08:12.761Z,52.26
2018-03-27T14:10:43.711Z,54.77
2018-03-27T14:13:14.446Z,55.40
2018-03-27T14:15:45.047Z,59.92
2018-03-27T14:18:15.158Z,57.41
2018-03-27T14:20:45.707Z,57.95
2018-03-27T14:23:16.772Z,57.91
2018-03-27T14:25:47.395Z,58.78
2018-03-27T14:28:18.079Z,58.80
2018-03-27T14:30:48.763Z,59.19
2018-03-27T14:33:19.779Z,59.04
2018-03-27T14:35:50.704Z,59.18
2018-03-27T14:38:21.768Z,59.32
2018-03-27T14:40:52.707Z,59.12
2018-03-27T14:43:23.804Z,58.93
2018-03-27T14:45:54.672Z,59.40
2018-03-27T14:48:25.833Z,59.15
2018-03-27T14:50:56.795Z,59.00
2018-03-27T14:53:27.749Z,59.06
2018-03-27T14:55:58.754Z,58.91
2018-03-27T14:58:29.731Z,59.00
2018-03-27T15:01:00.806Z,58.85
2018-03-27T15:03:31.771Z,58.80
2018-03-27T15:06:02.674Z,59.08
2018-03-27T15:08:33.839Z,59.39
2018-03-27T15:11:04.375Z,59.46
2018-03-27T15:13:35.111Z,59.73
2018-03-27T15:16:05.768Z,60.11
2018-03-27T15:18:36.787Z,60.03
2018-03-27T15:21:07.655Z,60.39
2018-03-27T15:23:38.392Z,60.12
2018-03-27T15:26:09.084Z,60.29
2018-03-27T15:28:39.900Z,60.47
2018-03-27T15:31:10.947Z,60.42
2018-03-27T15:33:41.889Z,59.70
2018-03-27T15:36:12.665Z,59.73
2018-03-27T15:38:43.747Z,59.16
2018-03-27T15:41:14.708Z,58.75
2018-03-27T15:43:46.648Z,58.48
2018-03-27T15:46:17.313Z,58.80
2018-03-27T15:48:48.116Z,57.71
2018-03-27T15:51:18.886Z,58.06
2018-03-27T15:53:49.838Z,58.18
2018-03-27T15:56:20.752Z,58.00
2018-03-27T15:58:51.732Z,57.56
2018-03-27T16:01:22.786Z,57.13
2018-03-27T16:03:53.756Z,57.23
2018-03-27T16:06:24.872Z,56.92
2018-03-27T16:08:56.807Z,57.67
2018-03-27T16:11:27.350Z,57.44
2018-03-27T16:13:58.182Z,57.26
2018-03-27T16:16:28.849Z,57.90
2018-03-27T16:18:59.740Z,57.64
2018-03-27T16:21:30.675Z,57.82
2018-03-27T16:24:01.776Z,58.04
2018-03-27T16:26:32.768Z,57.98
2018-03-27T16:29:03.807Z,57.71
2018-03-27T16:31:35.247Z,58.10
2018-03-27T16:34:05.640Z,57.37
2018-03-27T16:36:36.642Z,57.16
2018-03-27T16:39:07.751Z,57.85
2018-03-27T16:41:38.728Z,58.28
2018-03-27T16:44:09.907Z,58.24
2018-03-27T16:46:40.718Z,57.90
2018-03-27T16:49:12.630Z,58.18
2018-03-27T16:51:43.293Z,58.33
2018-03-27T16:54:13.904Z,58.46
2018-03-27T16:56:45.177Z,58.57
2018-03-27T16:59:15.057Z,59.11
2018-03-27T17:01:45.908Z,59.42
2018-03-27T17:04:16.779Z,60.02
2018-03-27T17:06:47.833Z,59.87
2018-03-27T17:09:18.912Z,60.04
2018-03-27T17:11:49.340Z,59.99
2018-03-27T17:14:20.035Z,60.28
2018-03-27T17:16:51.364Z,60.34
2018-03-27T17:19:22.485Z,60.87
2018-03-27T17:21:53.157Z,61.11
2018-03-27T17:24:23.164Z,61.12
2018-03-27T17:26:53.786Z,61.12
2018-03-27T17:29:24.909Z,61.16
2018-03-27T17:31:55.636Z,61.07
2018-03-27T17:37:11.599Z,61.00
2018-03-27T17:39:41.053Z,61.21
2018-03-27T17:42:10.347Z,61.20
2018-03-27T17:44:39.618Z,61.29
2018-03-27T17:47:09.034Z,61.37
2018-03-27T17:49:38.367Z,61.46
2018-03-27T17:52:07.742Z,61.47
2018-03-27T17:54:37.372Z,61.46
2018-03-27T17:57:06.861Z,61.54
2018-03-27T17:59:36.115Z,61.69
2018-03-27T18:02:05.450Z,61.73
2018-03-27T18:04:35.262Z,61.79
2018-03-27T18:07:05.669Z,61.95
2018-03-27T18:09:37.272Z,62.00
2018-03-27T18:12:07.947Z,62.04
2018-03-27T18:14:38.750Z,62.19
2018-03-27T18:17:09.846Z,62.27
2018-03-27T18:19:40.507Z,62.43
2018-03-27T18:22:11.621Z,62.64
2018-03-27T18:24:42.667Z,62.77
2018-03-27T18:27:13.760Z,62.97
2018-03-27T18:29:45.260Z,63.09
2018-03-27T18:32:15.906Z,63.19
2018-03-27T18:34:46.848Z,63.24
2018-03-27T18:37:17.948Z,63.25
2018-03-27T18:39:48.763Z,63.39
2018-03-27T18:42:21.517Z,63.55
2018-03-27T18:44:50.932Z,63.61
2018-03-27T18:47:21.535Z,63.67
2018-03-27T18:49:52.218Z,63.72
2018-03-27T18:52:22.914Z,63.72
2018-03-27T18:54:53.720Z,63.84
2018-03-27T18:57:24.535Z,63.92
2018-03-27T18:59:55.552Z,64.02
2018-03-27T19:02:26.652Z,64.35
2018-03-27T19:04:57.690Z,64.54
2018-03-27T19:07:28.920Z,64.97
2018-03-27T19:09:59.925Z,65.23
2018-03-27T19:12:30.878Z,65.42
2018-03-27T19:15:01.754Z,65.48
2018-03-27T19:17:32.784Z,65.76
2018-03-27T19:20:03.760Z,65.91
2018-03-27T19:22:34.796Z,66.20
2018-03-27T19:25:05.402Z,66.66
2018-03-27T19:27:36.203Z,67.37
2018-03-27T19:30:06.866Z,67.41
2018-03-27T19:32:37.378Z,67.47
2018-03-27T19:35:08.096Z,67.37
2018-03-27T19:37:38.873Z,67.46
2018-03-27T19:40:09.384Z,67.38
2018-03-27T19:42:40.117Z,67.62
2018-03-27T19:45:10.837Z,67.87
2018-03-27T19:47:41.858Z,66.93
2018-03-27T19:50:12.817Z,66.91
2018-03-27T19:52:43.407Z,66.57
2018-03-27T19:55:14.114Z,66.99
2018-03-27T19:57:44.952Z,66.08
2018-03-27T20:00:15.366Z,68.32
2018-03-27T20:02:46.168Z,67.09
2018-03-27T20:05:16.768Z,66.65
2018-03-27T20:07:47.472Z,66.84
2018-03-27T20:10:18.234Z,67.40
2018-03-27T20:12:48.861Z,68.70
2018-03-27T20:15:24.814Z,69.06
2018-03-27T20:17:54.143Z,68.93
2018-03-27T20:20:23.427Z,69.01
2018-03-27T20:22:52.717Z,69.69
2018-03-27T20:25:22.501Z,70.21
2018-03-27T20:27:52.155Z,70.94
2018-03-27T20:30:22.823Z,70.46
2018-03-27T20:32:53.860Z,71.36
2018-03-27T20:35:24.464Z,73.24
2018-03-27T20:37:55.147Z,72.03
2018-03-27T20:40:25.932Z,71.89
2018-03-27T20:42:56.686Z,71.76
2018-03-27T20:45:27.502Z,72.01
2018-03-27T20:47:58.552Z,72.07
2018-03-27T20:50:29.622Z,71.75
2018-03-27T20:53:00.715Z,71.54
2018-03-27T20:55:31.911Z,72.26
2018-03-27T20:58:02.811Z,72.45
2018-03-27T21:00:33.753Z,72.55
2018-03-27T21:03:04.381Z,72.98
2018-03-27T21:05:36.242Z,72.82
2018-03-27T21:08:06.872Z,72.38
2018-03-27T21:10:37.999Z,72.75
2018-03-27T21:13:08.730Z,72.70
2018-03-27T21:15:39.799Z,72.64
2018-03-27T21:18:10.722Z,72.44
2018-03-27T21:20:41.847Z,72.21
2018-03-27T21:23:12.728Z,72.83
2018-03-27T21:25:43.799Z,72.14
2018-03-27T21:28:14.645Z,72.07
2018-03-27T21:30:45.768Z,72.51
2018-03-27T21:33:16.658Z,73.02
2018-03-27T21:35:47.369Z,72.90
2018-03-27T21:38:17.472Z,72.92
2018-03-27T21:40:48.204Z,73.72
2018-03-27T21:43:18.798Z,73.05
2018-03-27T21:45:49.806Z,73.55
2018-03-27T21:48:20.752Z,74.02
2018-03-27T21:50:51.140Z,73.72
2018-03-27T21:53:21.840Z,73.84
2018-03-27T21:55:52.716Z,73.27
2018-03-27T21:58:23.779Z,73.18
2018-03-27T22:00:54.868Z,73.43
2018-03-27T22:03:25.151Z,73.71
2018-03-27T22:05:56.750Z,73.23
2018-03-27T22:08:27.590Z,73.33
2018-03-27T22:10:58.594Z,74.47
2018-03-27T22:13:29.457Z,74.17
2018-03-27T22:16:00.408Z,74.20
2018-03-27T22:18:31.348Z,74.10
2018-03-27T22:21:02.371Z,75.08
2018-03-27T22:23:33.375Z,74.83
2018-03-27T22:26:04.450Z,74.62
2018-03-27T22:28:35.341Z,74.60
2018-03-27T22:31:06.883Z,74.30
2018-03-27T22:33:37.655Z,74.17
2018-03-27T22:36:08.726Z,74.06
2018-03-27T22:38:39.745Z,75.32
2018-03-27T22:41:10.904Z,75.41
2018-03-27T22:43:41.704Z,75.53
2018-03-27T22:46:12.741Z,75.17
2018-03-27T22:48:49.358Z,74.60
2018-03-27T22:51:18.923Z,75.29
2018-03-27T22:53:48.208Z,75.37
2018-03-27T22:56:17.466Z,75.98
2018-03-27T22:58:48.174Z,74.97
2018-03-27T23:01:18.438Z,75.09
2018-03-27T23:03:49.255Z,76.76
2018-03-27T23:06:19.833Z,76.29
2018-03-27T23:08:50.764Z,76.96
2018-03-27T23:11:21.802Z,75.74
2018-03-27T23:13:52.488Z,76.51
2018-03-27T23:16:22.980Z,76.20
2018-03-27T23:18:53.806Z,76.46
2018-03-27T23:21:24.770Z,76.50
2018-03-27T23:23:55.821Z,76.58
2018-03-27T23:26:26.416Z,75.85
2018-03-27T23:28:57.143Z,75.54
2018-03-27T23:31:27.793Z,75.38
2018-03-27T23:33:58.492Z,75.43
2018-03-27T23:36:29.146Z,75.20
2018-03-27T23:38:59.855Z,74.85
2018-03-27T23:41:30.401Z,74.84
2018-03-27T23:44:01.090Z,74.65
2018-03-27T23:46:31.008Z,74.53
2018-03-27T23:49:02.032Z,74.48
2018-03-27T23:51:32.701Z,74.54
2018-03-27T23:54:03.752Z,74.86
2018-03-27T23:56:34.687Z,74.82
2018-03-27T23:59:05.795Z,74.68
